sensor_id;sensor_type;location;lat;lon;timestamp;P1;durP1;ratioP1;P2;durP2;ratioP2
14007;SDS011;61651;45.508;12.232;2023-07-24T00:02:51;10.00;;;7.47;;
14007;SDS011;61651;45.508;12.232;2023-07-24T00:05:57;8.38;;;7.55;;
14007;SDS011;61651;45.508;12.232;2023-07-24T00:09:00;9.35;;;8.00;;
14007;SDS011;61651;45.508;12.232;2023-07-24T00:12:02;9.05;;;8.00;;
14007;SDS011;61651;45.508;12.232;2023-07-24T00:15:05;11.38;;;7.10;;
14007;SDS011;61651;45.508;12.232;2023-07-24T00:18:09;9.13;;;7.35;;
14007;SDS011;61651;45.508;12.232;2023-07-24T00:21:11;8.52;;;7.72;;
14007;SDS011;61651;45.508;12.232;2023-07-24T00:24:13;9.55;;;7.30;;
14007;SDS011;61651;45.508;12.232;2023-07-24T00:27:15;9.40;;;8.38;;
14007;SDS011;61651;45.508;12.232;2023-07-24T00:30:17;9.15;;;8.25;;
14007;SDS011;61651;45.508;12.232;2023-07-24T00:33:21;11.52;;;8.23;;
14007;SDS011;61651;45.508;12.232;2023-07-24T00:36:23;11.27;;;8.45;;
14007;SDS011;61651;45.508;12.232;2023-07-24T00:39:25;9.13;;;8.32;;
14007;SDS011;61651;45.508;12.232;2023-07-24T00:42:28;11.05;;;8.90;;
14007;SDS011;61651;45.508;12.232;2023-07-24T00:45:30;9.98;;;8.93;;
14007;SDS011;61651;45.508;12.232;2023-07-24T00:48:34;13.13;;;9.02;;
14007;SDS011;61651;45.508;12.232;2023-07-24T00:51:36;9.30;;;8.40;;
14007;SDS011;61651;45.508;12.232;2023-07-24T00:54:38;11.50;;;8.90;;
14007;SDS011;61651;45.508;12.232;2023-07-24T00:57:41;9.80;;;8.30;;
14007;SDS011;61651;45.508;12.232;2023-07-24T01:00:44;11.00;;;8.80;;
14007;SDS011;61651;45.508;12.232;2023-07-24T01:03:48;9.52;;;8.52;;
14007;SDS011;61651;45.508;12.232;2023-07-24T01:06:51;12.30;;;9.15;;
14007;SDS011;61651;45.508;12.232;2023-07-24T01:09:53;10.43;;;8.10;;
14007;SDS011;61651;45.508;12.232;2023-07-24T01:12:57;11.55;;;10.35;;
14007;SDS011;61651;45.508;12.232;2023-07-24T01:16:05;10.55;;;8.60;;
14007;SDS011;61651;45.508;12.232;2023-07-24T01:19:20;10.02;;;8.57;;
14007;SDS011;61651;45.508;12.232;2023-07-24T01:22:30;13.15;;;9.90;;
14007;SDS011;61651;45.508;12.232;2023-07-24T01:25:45;11.35;;;9.68;;
14007;SDS011;61651;45.508;12.232;2023-07-24T01:28:53;13.55;;;10.10;;
14007;SDS011;61651;45.508;12.232;2023-07-24T01:31:55;12.43;;;9.60;;
14007;SDS011;61651;45.508;12.232;2023-07-24T01:34:57;10.02;;;9.13;;
14007;SDS011;61651;45.508;12.232;2023-07-24T01:37:59;12.52;;;10.18;;
14007;SDS011;61651;45.508;12.232;2023-07-24T01:41:04;11.85;;;10.27;;
14007;SDS011;61651;45.508;12.232;2023-07-24T01:44:06;11.52;;;10.43;;
14007;SDS011;61651;45.508;12.232;2023-07-24T01:47:08;13.13;;;10.95;;
14007;SDS011;61651;45.508;12.232;2023-07-24T01:50:10;13.40;;;10.52;;
14007;SDS011;61651;45.508;12.232;2023-07-24T01:53:12;10.70;;;9.70;;
14007;SDS011;61651;45.508;12.232;2023-07-24T01:56:16;12.05;;;10.75;;
14007;SDS011;61651;45.508;12.232;2023-07-24T01:59:18;11.50;;;10.32;;
14007;SDS011;61651;45.508;12.232;2023-07-24T02:02:20;12.35;;;9.60;;
14007;SDS011;61651;45.508;12.232;2023-07-24T02:05:22;11.50;;;10.27;;
14007;SDS011;61651;45.508;12.232;2023-07-24T02:08:24;12.10;;;10.70;;
14007;SDS011;61651;45.508;12.232;2023-07-24T02:11:27;11.13;;;10.10;;
14007;SDS011;61651;45.508;12.232;2023-07-24T02:14:29;11.63;;;10.52;;
14007;SDS011;61651;45.508;12.232;2023-07-24T02:17:31;11.68;;;10.48;;
14007;SDS011;61651;45.508;12.232;2023-07-24T02:20:33;13.38;;;12.07;;
14007;SDS011;61651;45.508;12.232;2023-07-24T02:23:35;11.95;;;10.77;;
14007;SDS011;61651;45.508;12.232;2023-07-24T02:26:39;11.95;;;10.77;;
14007;SDS011;61651;45.508;12.232;2023-07-24T02:29:41;12.25;;;10.95;;
14007;SDS011;61651;45.508;12.232;2023-07-24T02:32:43;11.80;;;10.63;;
14007;SDS011;61651;45.508;12.232;2023-07-24T02:35:45;12.00;;;10.82;;
14007;SDS011;61651;45.508;12.232;2023-07-24T02:38:46;12.88;;;11.63;;
14007;SDS011;61651;45.508;12.232;2023-07-24T02:41:50;15.88;;;11.30;;
14007;SDS011;61651;45.508;12.232;2023-07-24T02:44:52;12.43;;;11.13;;
14007;SDS011;61651;45.508;12.232;2023-07-24T02:47:54;12.55;;;11.25;;
14007;SDS011;61651;45.508;12.232;2023-07-24T02:50:56;13.02;;;11.77;;
14007;SDS011;61651;45.508;12.232;2023-07-24T02:53:58;13.38;;;11.52;;
14007;SDS011;61651;45.508;12.232;2023-07-24T02:57:01;13.10;;;11.80;;
14007;SDS011;61651;45.508;12.232;2023-07-24T03:00:04;13.55;;;11.38;;
14007;SDS011;61651;45.508;12.232;2023-07-24T03:03:07;12.07;;;10.88;;
14007;SDS011;61651;45.508;12.232;2023-07-24T03:06:09;11.35;;;10.35;;
14007;SDS011;61651;45.508;12.232;2023-07-24T03:09:11;12.27;;;10.98;;
14007;SDS011;61651;45.508;12.232;2023-07-24T03:12:15;13.38;;;12.07;;
14007;SDS011;61651;45.508;12.232;2023-07-24T03:15:17;13.77;;;12.48;;
14007;SDS011;61651;45.508;12.232;2023-07-24T03:18:19;14.25;;;12.88;;
14007;SDS011;61651;45.508;12.232;2023-07-24T03:21:21;13.80;;;12.50;;
14007;SDS011;61651;45.508;12.232;2023-07-24T03:24:23;14.52;;;13.20;;
14007;SDS011;61651;45.508;12.232;2023-07-24T03:27:27;12.82;;;11.32;;
14007;SDS011;61651;45.508;12.232;2023-07-24T03:30:29;14.60;;;12.25;;
14007;SDS011;61651;45.508;12.232;2023-07-24T03:33:31;13.55;;;12.23;;
14007;SDS011;61651;45.508;12.232;2023-07-24T03:36:33;16.13;;;13.25;;
14007;SDS011;61651;45.508;12.232;2023-07-24T03:39:35;14.48;;;13.07;;
14007;SDS011;61651;45.508;12.232;2023-07-24T03:42:39;13.13;;;11.82;;
14007;SDS011;61651;45.508;12.232;2023-07-24T03:45:41;15.63;;;14.02;;
14007;SDS011;61651;45.508;12.232;2023-07-24T03:48:44;14.82;;;13.43;;
14007;SDS011;61651;45.508;12.232;2023-07-24T03:51:45;16.15;;;14.55;;
14007;SDS011;61651;45.508;12.232;2023-07-24T03:54:48;17.23;;;15.07;;
14007;SDS011;61651;45.508;12.232;2023-07-24T03:57:51;14.00;;;12.57;;
14007;SDS011;61651;45.508;12.232;2023-07-24T04:00:53;15.90;;;12.82;;
14007;SDS011;61651;45.508;12.232;2023-07-24T04:03:55;15.43;;;13.90;;
14007;SDS011;61651;45.508;12.232;2023-07-24T04:06:58;15.25;;;13.85;;
14007;SDS011;61651;45.508;12.232;2023-07-24T04:10:00;17.77;;;15.18;;
14007;SDS011;61651;45.508;12.232;2023-07-24T04:13:03;14.48;;;13.02;;
14007;SDS011;61651;45.508;12.232;2023-07-24T04:16:05;17.02;;;14.60;;
14007;SDS011;61651;45.508;12.232;2023-07-24T04:19:07;15.43;;;13.98;;
14007;SDS011;61651;45.508;12.232;2023-07-24T04:22:09;17.08;;;13.98;;
14007;SDS011;61651;45.508;12.232;2023-07-24T04:25:11;15.73;;;13.45;;
14007;SDS011;61651;45.508;12.232;2023-07-24T04:28:14;15.07;;;13.50;;
14007;SDS011;61651;45.508;12.232;2023-07-24T04:31:16;16.58;;;14.65;;
14007;SDS011;61651;45.508;12.232;2023-07-24T04:34:18;15.32;;;13.90;;
14007;SDS011;61651;45.508;12.232;2023-07-24T04:37:21;16.13;;;14.55;;
14007;SDS011;61651;45.508;12.232;2023-07-24T04:40:23;15.07;;;13.52;;
14007;SDS011;61651;45.508;12.232;2023-07-24T04:43:26;16.35;;;14.15;;
14007;SDS011;61651;45.508;12.232;2023-07-24T04:46:28;14.95;;;13.45;;
14007;SDS011;61651;45.508;12.232;2023-07-24T04:49:30;18.25;;;13.57;;
14007;SDS011;61651;45.508;12.232;2023-07-24T04:52:33;17.50;;;13.95;;
14007;SDS011;61651;45.508;12.232;2023-07-24T04:55:35;17.38;;;14.88;;
14007;SDS011;61651;45.508;12.232;2023-07-24T04:58:38;16.45;;;14.77;;
14007;SDS011;61651;45.508;12.232;2023-07-24T05:01:40;15.38;;;13.77;;
14007;SDS011;61651;45.508;12.232;2023-07-24T05:04:42;16.02;;;14.32;;
14007;SDS011;61651;45.508;12.232;2023-07-24T05:07:44;14.88;;;13.32;;
14007;SDS011;61651;45.508;12.232;2023-07-24T05:10:47;15.45;;;12.27;;
14007;SDS011;61651;45.508;12.232;2023-07-24T05:13:50;13.45;;;12.10;;
14007;SDS011;61651;45.508;12.232;2023-07-24T05:16:52;14.27;;;12.77;;
14007;SDS011;61651;45.508;12.232;2023-07-24T05:19:54;15.75;;;14.25;;
14007;SDS011;61651;45.508;12.232;2023-07-24T05:22:56;13.10;;;11.90;;
14007;SDS011;61651;45.508;12.232;2023-07-24T05:25:58;14.25;;;12.85;;
14007;SDS011;61651;45.508;12.232;2023-07-24T05:29:02;13.80;;;12.45;;
14007;SDS011;61651;45.508;12.232;2023-07-24T05:32:05;14.73;;;13.23;;
14007;SDS011;61651;45.508;12.232;2023-07-24T05:35:07;13.88;;;12.55;;
14007;SDS011;61651;45.508;12.232;2023-07-24T05:38:09;13.52;;;12.32;;
14007;SDS011;61651;45.508;12.232;2023-07-24T05:41:11;12.40;;;11.30;;
14007;SDS011;61651;45.508;12.232;2023-07-24T05:44:15;14.15;;;12.70;;
14007;SDS011;61651;45.508;12.232;2023-07-24T05:47:17;11.95;;;10.70;;
14007;SDS011;61651;45.508;12.232;2023-07-24T05:50:19;13.00;;;10.98;;
14007;SDS011;61651;45.508;12.232;2023-07-24T05:53:20;10.95;;;9.88;;
14007;SDS011;61651;45.508;12.232;2023-07-24T05:56:23;12.13;;;10.93;;
14007;SDS011;61651;45.508;12.232;2023-07-24T05:59:26;14.65;;;11.00;;
14007;SDS011;61651;45.508;12.232;2023-07-24T06:02:28;13.30;;;10.00;;
14007;SDS011;61651;45.508;12.232;2023-07-24T06:05:30;10.85;;;9.75;;
14007;SDS011;61651;45.508;12.232;2023-07-24T06:08:32;12.10;;;10.80;;
14007;SDS011;61651;45.508;12.232;2023-07-24T06:11:34;11.07;;;9.98;;
14007;SDS011;61651;45.508;12.232;2023-07-24T06:14:38;10.82;;;9.68;;
14007;SDS011;61651;45.508;12.232;2023-07-24T06:17:40;12.27;;;9.77;;
14007;SDS011;61651;45.508;12.232;2023-07-24T06:20:42;9.68;;;8.65;;
14007;SDS011;61651;45.508;12.232;2023-07-24T06:23:44;9.95;;;8.77;;
14007;SDS011;61651;45.508;12.232;2023-07-24T06:26:46;9.90;;;8.90;;
14007;SDS011;61651;45.508;12.232;2023-07-24T06:29:49;11.32;;;10.23;;
14007;SDS011;61651;45.508;12.232;2023-07-24T06:32:51;11.60;;;10.00;;
14007;SDS011;61651;45.508;12.232;2023-07-24T06:35:53;12.27;;;10.45;;
14007;SDS011;61651;45.508;12.232;2023-07-24T06:38:55;10.90;;;9.80;;
14007;SDS011;61651;45.508;12.232;2023-07-24T06:41:57;11.15;;;9.77;;
14007;SDS011;61651;45.508;12.232;2023-07-24T06:45:00;11.27;;;9.00;;
14007;SDS011;61651;45.508;12.232;2023-07-24T06:48:03;13.63;;;8.95;;
14007;SDS011;61651;45.508;12.232;2023-07-24T06:51:05;12.60;;;8.95;;
14007;SDS011;61651;45.508;12.232;2023-07-24T06:54:07;9.98;;;8.13;;
14007;SDS011;61651;45.508;12.232;2023-07-24T06:57:09;9.98;;;9.00;;
14007;SDS011;61651;45.508;12.232;2023-07-24T07:00:13;9.38;;;8.48;;
14007;SDS011;61651;45.508;12.232;2023-07-24T07:03:16;11.88;;;8.93;;
14007;SDS011;61651;45.508;12.232;2023-07-24T07:06:18;11.48;;;8.80;;
14007;SDS011;61651;45.508;12.232;2023-07-24T07:09:20;11.15;;;8.93;;
14007;SDS011;61651;45.508;12.232;2023-07-24T07:12:21;9.35;;;8.45;;
14007;SDS011;61651;45.508;12.232;2023-07-24T07:15:25;10.25;;;8.45;;
14007;SDS011;61651;45.508;12.232;2023-07-24T07:18:27;10.65;;;8.05;;
14007;SDS011;61651;45.508;12.232;2023-07-24T07:21:29;12.02;;;8.68;;
14007;SDS011;61651;45.508;12.232;2023-07-24T07:24:31;11.77;;;7.65;;
14007;SDS011;61651;45.508;12.232;2023-07-24T07:27:33;11.60;;;8.52;;
14007;SDS011;61651;45.508;12.232;2023-07-24T07:30:36;10.40;;;7.82;;
14007;SDS011;61651;45.508;12.232;2023-07-24T07:33:38;9.85;;;7.85;;
14007;SDS011;61651;45.508;12.232;2023-07-24T07:36:40;11.65;;;7.90;;
14007;SDS011;61651;45.508;12.232;2023-07-24T07:39:42;8.30;;;7.50;;
14007;SDS011;61651;45.508;12.232;2023-07-24T07:42:44;10.00;;;8.15;;
14007;SDS011;61651;45.508;12.232;2023-07-24T07:45:48;12.13;;;7.97;;
14007;SDS011;61651;45.508;12.232;2023-07-24T07:48:50;9.45;;;7.60;;
14007;SDS011;61651;45.508;12.232;2023-07-24T07:51:52;10.65;;;8.63;;
14007;SDS011;61651;45.508;12.232;2023-07-24T07:54:54;11.57;;;8.07;;
14007;SDS011;61651;45.508;12.232;2023-07-24T07:57:56;8.48;;;7.38;;
14007;SDS011;61651;45.508;12.232;2023-07-24T08:01:02;10.20;;;7.22;;
14007;SDS011;61651;45.508;12.232;2023-07-24T08:04:05;8.38;;;7.13;;
14007;SDS011;61651;45.508;12.232;2023-07-24T08:07:07;10.07;;;7.72;;
14007;SDS011;61651;45.508;12.232;2023-07-24T08:10:09;9.95;;;7.18;;
14007;SDS011;61651;45.508;12.232;2023-07-24T08:13:11;10.75;;;8.63;;
14007;SDS011;61651;45.508;12.232;2023-07-24T08:16:14;7.63;;;6.90;;
14007;SDS011;61651;45.508;12.232;2023-07-24T08:19:18;9.80;;;7.72;;
14007;SDS011;61651;45.508;12.232;2023-07-24T08:22:20;9.13;;;8.13;;
14007;SDS011;61651;45.508;12.232;2023-07-24T08:25:23;11.55;;;8.48;;
14007;SDS011;61651;45.508;12.232;2023-07-24T08:28:25;9.65;;;7.18;;
14007;SDS011;61651;45.508;12.232;2023-07-24T08:31:28;9.32;;;7.15;;
14007;SDS011;61651;45.508;12.232;2023-07-24T08:34:31;7.55;;;6.68;;
14007;SDS011;61651;45.508;12.232;2023-07-24T08:37:33;8.93;;;7.68;;
14007;SDS011;61651;45.508;12.232;2023-07-24T08:40:35;7.88;;;7.07;;
14007;SDS011;61651;45.508;12.232;2023-07-24T08:43:38;8.73;;;7.82;;
14007;SDS011;61651;45.508;12.232;2023-07-24T08:46:42;8.10;;;7.10;;
14007;SDS011;61651;45.508;12.232;2023-07-24T08:49:46;11.10;;;7.35;;
14007;SDS011;61651;45.508;12.232;2023-07-24T08:52:48;10.38;;;7.50;;
14007;SDS011;61651;45.508;12.232;2023-07-24T08:55:50;9.05;;;7.00;;
14007;SDS011;61651;45.508;12.232;2023-07-24T08:58:54;11.10;;;7.45;;
14007;SDS011;61651;45.508;12.232;2023-07-24T09:01:58;7.78;;;6.97;;
14007;SDS011;61651;45.508;12.232;2023-07-24T09:05:00;9.38;;;7.18;;
14007;SDS011;61651;45.508;12.232;2023-07-24T09:08:03;9.15;;;7.45;;
14007;SDS011;61651;45.508;12.232;2023-07-24T09:11:06;10.27;;;8.05;;
14007;SDS011;61651;45.508;12.232;2023-07-24T09:14:09;9.25;;;8.15;;
14007;SDS011;61651;45.508;12.232;2023-07-24T09:17:23;14.10;;;8.05;;
14007;SDS011;61651;45.508;12.232;2023-07-24T09:20:25;9.57;;;8.57;;
14007;SDS011;61651;45.508;12.232;2023-07-24T09:23:27;8.02;;;7.22;;
14007;SDS011;61651;45.508;12.232;2023-07-24T09:26:29;9.43;;;7.28;;
14007;SDS011;61651;45.508;12.232;2023-07-24T09:29:32;11.50;;;6.78;;
14007;SDS011;61651;45.508;12.232;2023-07-24T09:32:36;11.18;;;7.82;;
14007;SDS011;61651;45.508;12.232;2023-07-24T09:35:38;9.95;;;7.60;;
14007;SDS011;61651;45.508;12.232;2023-07-24T09:38:40;10.77;;;7.88;;
14007;SDS011;61651;45.508;12.232;2023-07-24T09:41:43;10.68;;;7.43;;
14007;SDS011;61651;45.508;12.232;2023-07-24T09:44:48;9.18;;;7.30;;
14007;SDS011;61651;45.508;12.232;2023-07-24T09:47:51;8.30;;;7.25;;
14007;SDS011;61651;45.508;12.232;2023-07-24T09:50:57;9.25;;;7.57;;
14007;SDS011;61651;45.508;12.232;2023-07-24T09:54:01;9.10;;;6.72;;
14007;SDS011;61651;45.508;12.232;2023-07-24T09:57:13;9.43;;;6.90;;
14007;SDS011;61651;45.508;12.232;2023-07-24T10:00:15;9.07;;;7.30;;
14007;SDS011;61651;45.508;12.232;2023-07-24T10:03:20;9.80;;;7.32;;
14007;SDS011;61651;45.508;12.232;2023-07-24T10:06:23;11.15;;;7.28;;
14007;SDS011;61651;45.508;12.232;2023-07-24T10:09:28;7.80;;;6.97;;
14007;SDS011;61651;45.508;12.232;2023-07-24T10:12:30;11.82;;;7.78;;
14007;SDS011;61651;45.508;12.232;2023-07-24T10:15:33;11.05;;;8.65;;
14007;SDS011;61651;45.508;12.232;2023-07-24T10:18:42;10.65;;;7.72;;
14007;SDS011;61651;45.508;12.232;2023-07-24T10:21:46;12.25;;;7.47;;
14007;SDS011;61651;45.508;12.232;2023-07-24T10:24:48;7.82;;;6.90;;
14007;SDS011;61651;45.508;12.232;2023-07-24T10:27:50;10.88;;;7.70;;
14007;SDS011;61651;45.508;12.232;2023-07-24T10:30:55;8.60;;;7.57;;
14007;SDS011;61651;45.508;12.232;2023-07-24T10:34:04;8.82;;;6.72;;
14007;SDS011;61651;45.508;12.232;2023-07-24T10:37:07;13.05;;;11.77;;
14007;SDS011;61651;45.508;12.232;2023-07-24T10:40:18;11.93;;;7.60;;
14007;SDS011;61651;45.508;12.232;2023-07-24T10:43:21;9.23;;;6.95;;
14007;SDS011;61651;45.508;12.232;2023-07-24T10:46:34;9.15;;;6.72;;
14007;SDS011;61651;45.508;12.232;2023-07-24T10:49:38;10.43;;;7.90;;
14007;SDS011;61651;45.508;12.232;2023-07-24T10:52:49;10.18;;;7.72;;
14007;SDS011;61651;45.508;12.232;2023-07-24T10:55:51;8.73;;;7.38;;
14007;SDS011;61651;45.508;12.232;2023-07-24T10:58:53;9.98;;;7.95;;
14007;SDS011;61651;45.508;12.232;2023-07-24T11:01:55;8.63;;;7.40;;
14007;SDS011;61651;45.508;12.232;2023-07-24T11:05:01;9.13;;;7.35;;
14007;SDS011;61651;45.508;12.232;2023-07-24T11:08:07;11.57;;;7.63;;
14007;SDS011;61651;45.508;12.232;2023-07-24T11:11:14;8.93;;;7.97;;
14007;SDS011;61651;45.508;12.232;2023-07-24T11:14:17;9.20;;;7.45;;
14007;SDS011;61651;45.508;12.232;2023-07-24T11:17:19;10.75;;;8.02;;
14007;SDS011;61651;45.508;12.232;2023-07-24T11:20:22;10.50;;;7.78;;
14007;SDS011;61651;45.508;12.232;2023-07-24T11:23:24;8.20;;;7.40;;
14007;SDS011;61651;45.508;12.232;2023-07-24T11:26:26;10.80;;;8.20;;
14007;SDS011;61651;45.508;12.232;2023-07-24T11:29:30;10.35;;;8.73;;
14007;SDS011;61651;45.508;12.232;2023-07-24T11:32:33;8.95;;;7.38;;
14007;SDS011;61651;45.508;12.232;2023-07-24T11:35:37;9.60;;;7.30;;
14007;SDS011;61651;45.508;12.232;2023-07-24T11:38:40;12.77;;;8.50;;
14007;SDS011;61651;45.508;12.232;2023-07-24T11:41:43;10.40;;;8.32;;
14007;SDS011;61651;45.508;12.232;2023-07-24T11:44:45;8.75;;;7.90;;
14007;SDS011;61651;45.508;12.232;2023-07-24T11:47:48;10.57;;;8.07;;
14007;SDS011;61651;45.508;12.232;2023-07-24T11:50:55;10.13;;;7.95;;
14007;SDS011;61651;45.508;12.232;2023-07-24T11:54:05;9.23;;;7.90;;
14007;SDS011;61651;45.508;12.232;2023-07-24T11:57:14;9.73;;;8.57;;
14007;SDS011;61651;45.508;12.232;2023-07-24T12:00:17;10.60;;;7.40;;
14007;SDS011;61651;45.508;12.232;2023-07-24T12:03:21;11.02;;;7.72;;
14007;SDS011;61651;45.508;12.232;2023-07-24T12:06:25;9.30;;;8.20;;
14007;SDS011;61651;45.508;12.232;2023-07-24T12:09:29;9.80;;;7.90;;
14007;SDS011;61651;45.508;12.232;2023-07-24T12:12:41;9.70;;;8.50;;
14007;SDS011;61651;45.508;12.232;2023-07-24T12:15:45;10.73;;;8.30;;
14007;SDS011;61651;45.508;12.232;2023-07-24T12:18:47;9.15;;;7.82;;
14007;SDS011;61651;45.508;12.232;2023-07-24T12:21:51;11.25;;;7.82;;
14007;SDS011;61651;45.508;12.232;2023-07-24T12:24:53;10.43;;;8.57;;
14007;SDS011;61651;45.508;12.232;2023-07-24T12:27:55;11.32;;;8.00;;
14007;SDS011;61651;45.508;12.232;2023-07-24T12:30:57;9.98;;;8.45;;
14007;SDS011;61651;45.508;12.232;2023-07-24T12:33:59;9.88;;;8.85;;
14007;SDS011;61651;45.508;12.232;2023-07-24T12:37:03;10.02;;;7.90;;
14007;SDS011;61651;45.508;12.232;2023-07-24T12:40:05;8.93;;;7.95;;
14007;SDS011;61651;45.508;12.232;2023-07-24T12:43:08;10.02;;;8.25;;
14007;SDS011;61651;45.508;12.232;2023-07-24T12:46:10;12.38;;;8.95;;
14007;SDS011;61651;45.508;12.232;2023-07-24T12:49:12;11.73;;;7.53;;
14007;SDS011;61651;45.508;12.232;2023-07-24T12:52:16;13.68;;;9.07;;
14007;SDS011;61651;45.508;12.232;2023-07-24T12:55:18;10.57;;;8.57;;
14007;SDS011;61651;45.508;12.232;2023-07-24T12:58:20;9.48;;;7.22;;
14007;SDS011;61651;45.508;12.232;2023-07-24T13:01:22;8.93;;;7.88;;
14007;SDS011;61651;45.508;12.232;2023-07-24T13:04:25;10.30;;;8.05;;
14007;SDS011;61651;45.508;12.232;2023-07-24T13:07:28;9.90;;;7.80;;
14007;SDS011;61651;45.508;12.232;2023-07-24T13:10:30;8.13;;;7.30;;
14007;SDS011;61651;45.508;12.232;2023-07-24T13:13:32;9.07;;;8.18;;
14007;SDS011;61651;45.508;12.232;2023-07-24T13:16:36;9.57;;;7.15;;
14007;SDS011;61651;45.508;12.232;2023-07-24T13:19:38;8.07;;;7.28;;
14007;SDS011;61651;45.508;12.232;2023-07-24T13:22:41;8.18;;;7.40;;
14007;SDS011;61651;45.508;12.232;2023-07-24T13:25:46;9.73;;;7.88;;
14007;SDS011;61651;45.508;12.232;2023-07-24T13:28:48;12.95;;;8.63;;
14007;SDS011;61651;45.508;12.232;2023-07-24T13:31:51;9.95;;;8.30;;
14007;SDS011;61651;45.508;12.232;2023-07-24T13:34:54;10.57;;;8.35;;
14007;SDS011;61651;45.508;12.232;2023-07-24T13:37:58;9.30;;;8.00;;
14007;SDS011;61651;45.508;12.232;2023-07-24T13:41:00;9.35;;;7.63;;
14007;SDS011;61651;45.508;12.232;2023-07-24T13:44:02;11.88;;;8.43;;
14007;SDS011;61651;45.508;12.232;2023-07-24T13:47:05;13.13;;;8.75;;
14007;SDS011;61651;45.508;12.232;2023-07-24T13:50:07;13.82;;;8.63;;
14007;SDS011;61651;45.508;12.232;2023-07-24T13:53:11;14.63;;;9.07;;
14007;SDS011;61651;45.508;12.232;2023-07-24T13:56:13;10.40;;;8.40;;
14007;SDS011;61651;45.508;12.232;2023-07-24T13:59:15;10.32;;;7.97;;
14007;SDS011;61651;45.508;12.232;2023-07-24T14:02:17;11.77;;;8.60;;
14007;SDS011;61651;45.508;12.232;2023-07-24T14:05:19;10.27;;;8.57;;
14007;SDS011;61651;45.508;12.232;2023-07-24T14:08:23;14.13;;;8.82;;
14007;SDS011;61651;45.508;12.232;2023-07-24T14:11:25;9.55;;;8.52;;
14007;SDS011;61651;45.508;12.232;2023-07-24T14:14:29;10.27;;;8.55;;
14007;SDS011;61651;45.508;12.232;2023-07-24T14:17:31;12.18;;;8.77;;
14007;SDS011;61651;45.508;12.232;2023-07-24T14:20:35;15.00;;;8.60;;
14007;SDS011;61651;45.508;12.232;2023-07-24T14:23:38;14.00;;;8.45;;
14007;SDS011;61651;45.508;12.232;2023-07-24T14:26:40;13.90;;;8.52;;
14007;SDS011;61651;45.508;12.232;2023-07-24T14:29:44;11.23;;;8.57;;
14007;SDS011;61651;45.508;12.232;2023-07-24T14:32:46;12.05;;;8.60;;
14007;SDS011;61651;45.508;12.232;2023-07-24T14:35:50;16.20;;;9.32;;
14007;SDS011;61651;45.508;12.232;2023-07-24T14:38:53;14.73;;;9.27;;
14007;SDS011;61651;45.508;12.232;2023-07-24T14:41:55;9.70;;;8.68;;
14007;SDS011;61651;45.508;12.232;2023-07-24T14:44:57;10.95;;;8.20;;
14007;SDS011;61651;45.508;12.232;2023-07-24T14:48:02;12.70;;;8.77;;
14007;SDS011;61651;45.508;12.232;2023-07-24T14:51:04;11.88;;;8.98;;
14007;SDS011;61651;45.508;12.232;2023-07-24T14:54:08;10.05;;;8.00;;
14007;SDS011;61651;45.508;12.232;2023-07-24T14:57:10;9.10;;;8.23;;
14007;SDS011;61651;45.508;12.232;2023-07-24T15:00:13;8.23;;;7.38;;
14007;SDS011;61651;45.508;12.232;2023-07-24T15:03:16;10.50;;;8.98;;
14007;SDS011;61651;45.508;12.232;2023-07-24T15:06:18;10.55;;;9.10;;
14007;SDS011;61651;45.508;12.232;2023-07-24T15:09:21;12.30;;;8.90;;
14007;SDS011;61651;45.508;12.232;2023-07-24T15:12:23;11.57;;;8.68;;
14007;SDS011;61651;45.508;12.232;2023-07-24T15:15:26;10.20;;;9.20;;
14007;SDS011;61651;45.508;12.232;2023-07-24T15:18:28;12.32;;;9.75;;
14007;SDS011;61651;45.508;12.232;2023-07-24T15:21:30;11.90;;;9.50;;
14007;SDS011;61651;45.508;12.232;2023-07-24T15:24:34;12.02;;;8.95;;
14007;SDS011;61651;45.508;12.232;2023-07-24T15:27:36;16.27;;;9.00;;
14007;SDS011;61651;45.508;12.232;2023-07-24T15:30:38;11.32;;;9.25;;
14007;SDS011;61651;45.508;12.232;2023-07-24T15:33:40;11.27;;;9.75;;
14007;SDS011;61651;45.508;12.232;2023-07-24T15:36:42;11.90;;;9.70;;
14007;SDS011;61651;45.508;12.232;2023-07-24T15:39:45;11.57;;;9.10;;
14007;SDS011;61651;45.508;12.232;2023-07-24T15:42:48;11.05;;;9.40;;
14007;SDS011;61651;45.508;12.232;2023-07-24T15:45:50;10.13;;;9.07;;
14007;SDS011;61651;45.508;12.232;2023-07-24T15:48:52;10.18;;;9.10;;
14007;SDS011;61651;45.508;12.232;2023-07-24T15:51:54;10.80;;;9.73;;
14007;SDS011;61651;45.508;12.232;2023-07-24T15:54:58;10.27;;;9.18;;
14007;SDS011;61651;45.508;12.232;2023-07-24T15:58:00;12.98;;;9.45;;
14007;SDS011;61651;45.508;12.232;2023-07-24T16:01:02;11.35;;;9.95;;
14007;SDS011;61651;45.508;12.232;2023-07-24T16:04:04;10.07;;;9.18;;
14007;SDS011;61651;45.508;12.232;2023-07-24T16:07:06;15.32;;;9.57;;
14007;SDS011;61651;45.508;12.232;2023-07-24T16:10:10;10.10;;;8.70;;
14007;SDS011;61651;45.508;12.232;2023-07-24T16:13:12;10.18;;;9.20;;
14007;SDS011;61651;45.508;12.232;2023-07-24T16:16:14;12.75;;;9.65;;
14007;SDS011;61651;45.508;12.232;2023-07-24T16:19:16;12.50;;;9.93;;
14007;SDS011;61651;45.508;12.232;2023-07-24T16:22:19;14.75;;;10.45;;
14007;SDS011;61651;45.508;12.232;2023-07-24T16:25:23;10.93;;;9.77;;
14007;SDS011;61651;45.508;12.232;2023-07-24T16:28:25;12.77;;;9.95;;
14007;SDS011;61651;45.508;12.232;2023-07-24T16:31:27;11.32;;;10.13;;
14007;SDS011;61651;45.508;12.232;2023-07-24T16:34:29;12.55;;;10.35;;
14007;SDS011;61651;45.508;12.232;2023-07-24T16:37:35;13.70;;;10.30;;
14007;SDS011;61651;45.508;12.232;2023-07-24T16:40:39;11.80;;;10.60;;
14007;SDS011;61651;45.508;12.232;2023-07-24T16:43:42;10.88;;;9.77;;
14007;SDS011;61651;45.508;12.232;2023-07-24T16:46:44;12.00;;;10.73;;
14007;SDS011;61651;45.508;12.232;2023-07-24T16:49:46;11.35;;;10.18;;
14007;SDS011;61651;45.508;12.232;2023-07-24T16:52:48;10.65;;;9.45;;
14007;SDS011;61651;45.508;12.232;2023-07-24T16:55:51;11.18;;;10.02;;
14007;SDS011;61651;45.508;12.232;2023-07-24T16:58:53;12.27;;;10.45;;
14007;SDS011;61651;45.508;12.232;2023-07-24T17:01:55;11.73;;;10.50;;
14007;SDS011;61651;45.508;12.232;2023-07-24T17:04:57;11.82;;;10.63;;
14007;SDS011;61651;45.508;12.232;2023-07-24T17:07:59;11.60;;;10.35;;
14007;SDS011;61651;45.508;12.232;2023-07-24T17:11:03;10.77;;;9.73;;
14007;SDS011;61651;45.508;12.232;2023-07-24T17:14:05;12.48;;;10.32;;
14007;SDS011;61651;45.508;12.232;2023-07-24T17:17:07;13.32;;;10.80;;
14007;SDS011;61651;45.508;12.232;2023-07-24T17:20:09;11.68;;;10.48;;
14007;SDS011;61651;45.508;12.232;2023-07-24T17:23:11;13.13;;;11.07;;
14007;SDS011;61651;45.508;12.232;2023-07-24T17:26:15;12.55;;;10.05;;
14007;SDS011;61651;45.508;12.232;2023-07-24T17:29:17;11.23;;;9.98;;
14007;SDS011;61651;45.508;12.232;2023-07-24T17:32:19;12.60;;;10.10;;
14007;SDS011;61651;45.508;12.232;2023-07-24T17:35:22;11.73;;;10.43;;
14007;SDS011;61651;45.508;12.232;2023-07-24T17:38:24;13.38;;;12.00;;
14007;SDS011;61651;45.508;12.232;2023-07-24T17:41:27;15.25;;;10.82;;
14007;SDS011;61651;45.508;12.232;2023-07-24T17:44:29;12.57;;;11.10;;
14007;SDS011;61651;45.508;12.232;2023-07-24T17:47:31;12.65;;;11.35;;
14007;SDS011;61651;45.508;12.232;2023-07-24T17:50:34;12.27;;;10.98;;